createdAt,value
2018-12-26T00:00:05.907Z,99.90
2018-12-26T00:02:48.917Z,99.90
2018-12-26T00:05:19.573Z,99.90
2018-12-26T00:07:50.277Z,99.90
2018-12-26T00:10:40.037Z,99.90
2018-12-26T00:13:29.711Z,99.90
2018-12-26T00:16:11.665Z,99.90
2018-12-26T00:18:42.296Z,99.90
2018-12-26T00:21:31.827Z,99.90
2018-12-26T00:24:14.843Z,99.90
2018-12-26T00:26:45.389Z,99.90
2018-12-26T00:29:18.539Z,99.90
2018-12-26T00:31:49.039Z,99.90
2018-12-26T00:34:20.952Z,99.90
2018-12-26T00:37:10.647Z,99.90
2018-12-26T00:39:52.531Z,99.90
2018-12-26T00:42:23.067Z,99.90
2018-12-26T00:45:12.651Z,99.90
2018-12-26T00:47:55.059Z,99.90
2018-12-26T00:53:22.109Z,99.90
2018-12-26T00:56:10.424Z,99.90
2018-12-26T00:58:48.097Z,99.90
2018-12-26T01:01:30.699Z,99.90
2018-12-26T01:04:15.539Z,99.90
2018-12-26T01:06:58.812Z,99.90
2018-12-26T01:09:41.039Z,99.90
2018-12-26T01:12:23.727Z,99.90
2018-12-26T01:14:54.167Z,99.90
2018-12-26T01:17:43.869Z,99.90
2018-12-26T01:20:14.355Z,99.90
2018-12-26T01:23:04.173Z,99.90
2018-12-26T01:25:39.098Z,99.90
2018-12-26T01:28:28.855Z,99.90
2018-12-26T01:31:18.631Z,99.90
2018-12-26T01:34:01.251Z,99.90
2018-12-26T01:36:44.039Z,99.90
2018-12-26T01:39:14.534Z,99.90
2018-12-26T01:42:04.099Z,99.90
2018-12-26T01:44:36.215Z,99.90
2018-12-26T01:47:25.787Z,99.90
2018-12-26T01:49:56.595Z,99.90
2018-12-26T01:52:46.162Z,99.90
2018-12-26T01:55:16.666Z,99.90
2018-12-26T01:58:06.230Z,99.90
2018-12-26T02:00:36.763Z,99.90
2018-12-26T02:03:07.533Z,99.90
2018-12-26T02:08:52.730Z,99.90
2018-12-26T02:11:23.550Z,99.90
2018-12-26T02:14:13.534Z,99.90
2018-12-26T02:16:55.815Z,99.90
2018-12-26T02:19:44.427Z,99.90
2018-12-26T02:22:26.915Z,99.90
2018-12-26T02:24:58.063Z,99.90
2018-12-26T02:27:51.160Z,99.90
2018-12-26T02:30:33.434Z,99.90
2018-12-26T02:33:15.875Z,99.90
2018-12-26T02:35:58.322Z,99.90
2018-12-26T02:38:28.867Z,99.90
2018-12-26T02:40:59.361Z,99.90
2018-12-26T02:43:49.221Z,99.90
2018-12-26T02:46:32.218Z,99.90
2018-12-26T02:49:03.611Z,99.90
2018-12-26T02:51:54.732Z,99.90
2018-12-26T02:54:38.271Z,99.90
2018-12-26T02:57:09.062Z,99.90
2018-12-26T02:59:59.036Z,99.90
2018-12-26T03:02:50.172Z,99.90
2018-12-26T03:05:32.340Z,99.90
2018-12-26T03:08:02.939Z,99.90
2018-12-26T03:10:33.454Z,99.90
2018-12-26T03:13:04.023Z,99.90
2018-12-26T03:15:53.904Z,99.90
2018-12-26T03:18:24.699Z,99.90
2018-12-26T03:21:08.979Z,99.90
2018-12-26T03:23:51.478Z,99.90
2018-12-26T03:29:09.814Z,99.90
2018-12-26T03:31:41.940Z,99.90
2018-12-26T03:34:24.271Z,99.90
2018-12-26T03:37:07.267Z,99.90
2018-12-26T03:39:50.707Z,99.90
2018-12-26T03:42:21.212Z,99.90
2018-12-26T03:44:52.712Z,99.90
2018-12-26T03:47:44.036Z,99.90
2018-12-26T03:50:34.109Z,99.90
2018-12-26T03:53:18.085Z,99.90
2018-12-26T03:56:01.707Z,99.90
2018-12-26T03:58:43.915Z,99.90
2018-12-26T04:01:15.834Z,99.90
2018-12-26T04:04:05.919Z,99.90
2018-12-26T04:06:36.759Z,99.90
2018-12-26T04:09:09.842Z,99.90
2018-12-26T04:11:40.407Z,99.90
2018-12-26T04:14:30.192Z,99.90
2018-12-26T04:17:00.815Z,99.90
2018-12-26T04:19:50.417Z,99.90
2018-12-26T04:22:40.480Z,99.90
2018-12-26T04:25:11.223Z,99.90
2018-12-26T04:28:00.820Z,99.90
2018-12-26T04:30:50.434Z,99.90
2018-12-26T04:33:21.451Z,99.90
2018-12-26T04:36:11.025Z,99.90
2018-12-26T04:38:41.539Z,99.90
2018-12-26T04:41:13.633Z,99.90
2018-12-26T04:44:04.791Z,99.90
2018-12-26T04:46:47.884Z,99.90
2018-12-26T04:49:30.645Z,99.90
2018-12-26T04:52:01.155Z,99.90
2018-12-26T04:54:31.615Z,99.90
2018-12-26T04:57:02.202Z,99.90
2018-12-26T05:02:23.584Z,99.90
2018-12-26T05:04:54.058Z,99.90
2018-12-26T05:07:36.802Z,99.90
2018-12-26T05:10:18.883Z,99.90
2018-12-26T05:12:49.627Z,99.90
2018-12-26T05:15:39.393Z,99.90
2018-12-26T05:21:17.107Z,99.90
2018-12-26T05:24:19.089Z,99.90
2018-12-26T05:27:01.595Z,99.90
2018-12-26T05:29:44.766Z,99.90
2018-12-26T05:32:28.739Z,99.90
2018-12-26T05:35:00.823Z,99.90
2018-12-26T05:40:37.271Z,99.90
2018-12-26T05:43:19.741Z,99.90
2018-12-26T05:45:50.955Z,99.90
2018-12-26T05:48:33.400Z,99.90
2018-12-26T05:51:16.685Z,99.90
2018-12-26T05:56:39.651Z,99.90
2018-12-26T05:59:10.155Z,99.90
2018-12-26T06:02:01.314Z,99.90
2018-12-26T06:04:31.835Z,99.90
2018-12-26T06:07:21.403Z,99.90
2018-12-26T06:10:03.275Z,99.90
2018-12-26T06:12:45.920Z,99.90
2018-12-26T06:15:28.590Z,99.90
2018-12-26T06:21:10.905Z,99.90
2018-12-26T06:23:42.974Z,99.90
2018-12-26T06:26:34.123Z,99.90
2018-12-26T06:29:23.983Z,99.90
2018-12-26T06:32:06.247Z,99.90
2018-12-26T06:34:48.764Z,99.90
2018-12-26T06:37:19.330Z,99.90
2018-12-26T06:40:09.405Z,99.90
2018-12-26T06:42:59.420Z,99.90
2018-12-26T06:45:49.403Z,99.90
2018-12-26T06:48:39.006Z,99.90
2018-12-26T06:51:28.576Z,99.90
2018-12-26T06:54:20.793Z,99.90
2018-12-26T06:56:51.335Z,99.90
2018-12-26T06:59:40.901Z,99.90
2018-12-26T07:02:23.778Z,99.90
2018-12-26T07:04:54.269Z,99.90
2018-12-26T07:07:25.040Z,99.90
2018-12-26T07:10:15.507Z,99.90
2018-12-26T07:12:46.011Z,99.90
2018-12-26T07:15:18.046Z,99.90
2018-12-26T07:17:48.519Z,99.90
2018-12-26T07:20:38.401Z,99.90
2018-12-26T07:23:28.166Z,99.90
2018-12-26T07:26:10.872Z,99.90
2018-12-26T07:31:35.846Z,99.90
2018-12-26T07:34:06.671Z,99.90
2018-12-26T07:36:56.248Z,99.90
2018-12-26T07:39:26.844Z,99.90
2018-12-26T07:41:57.306Z,99.90
2018-12-26T07:44:46.903Z,99.90
2018-12-26T07:47:20.486Z,99.90
2018-12-26T07:49:50.994Z,99.90
2018-12-26T07:52:40.607Z,99.90
2018-12-26T07:55:22.679Z,99.90
2018-12-26T07:57:53.171Z,99.90
2018-12-26T08:00:42.855Z,99.90
2018-12-26T08:03:25.767Z,99.90
2018-12-26T08:06:08.920Z,99.90
2018-12-26T08:08:51.171Z,99.90
2018-12-26T08:11:36.774Z,99.90
2018-12-26T08:14:07.271Z,99.90
2018-12-26T08:16:58.545Z,99.90
2018-12-26T08:19:43.070Z,99.90
2018-12-26T08:22:25.452Z,99.90
2018-12-26T08:25:07.740Z,99.90
2018-12-26T08:27:51.619Z,99.90
2018-12-26T08:30:34.368Z,99.90
2018-12-26T08:33:05.102Z,99.90
2018-12-26T08:35:47.381Z,99.90
2018-12-26T08:38:29.280Z,99.90
2018-12-26T08:41:00.538Z,99.90
2018-12-26T08:43:31.034Z,99.90
2018-12-26T08:46:14.896Z,99.90
2018-12-26T08:48:45.687Z,99.90
2018-12-26T08:51:51.275Z,99.90
2018-12-26T08:54:22.016Z,99.90
2018-12-26T08:57:13.243Z,99.90
2018-12-26T08:59:43.746Z,99.90
2018-12-26T09:05:15.723Z,99.90
2018-12-26T09:10:29.707Z,99.90
2018-12-26T09:16:08.615Z,99.90
2018-12-26T09:19:10.471Z,99.90
2018-12-26T09:21:40.883Z,99.90
2018-12-26T09:24:30.799Z,99.90
2018-12-26T09:27:01.219Z,99.90
2018-12-26T09:29:33.359Z,99.90
2018-12-26T09:32:05.495Z,99.90
2018-12-26T09:34:55.108Z,99.90
2018-12-26T09:40:35.155Z,99.90
2018-12-26T09:43:05.651Z,99.90
2018-12-26T09:45:55.304Z,99.90
2018-12-26T09:48:44.914Z,99.90
2018-12-26T09:54:13.880Z,99.90
2018-12-26T09:59:54.251Z,99.90
2018-12-26T10:02:24.735Z,99.90
2018-12-26T10:05:14.508Z,99.90
2018-12-26T10:08:04.113Z,99.90
2018-12-26T10:10:35.247Z,99.90
2018-12-26T10:13:25.009Z,95.60
2018-12-26T10:16:07.626Z,91.60
2018-12-26T10:18:38.490Z,81.10
2018-12-26T10:21:08.995Z,78.90
2018-12-26T10:23:51.223Z,78.70
2018-12-26T10:26:39.568Z,72.00
2018-12-26T10:29:10.124Z,65.10
2018-12-26T10:31:40.707Z,57.60
2018-12-26T10:34:30.306Z,52.70
2018-12-26T10:37:19.983Z,46.90
2018-12-26T10:42:46.067Z,39.20
2018-12-26T10:45:28.212Z,33.90
2018-12-26T10:50:41.667Z,34.10
2018-12-26T10:53:31.259Z,36.40
2018-12-26T10:56:07.399Z,38.00
2018-12-26T10:58:59.930Z,43.40
2018-12-26T11:01:49.370Z,44.20
2018-12-26T11:04:19.961Z,50.50
2018-12-26T11:07:29.262Z,50.50
2018-12-26T11:10:11.704Z,54.10
2018-12-26T11:12:42.222Z,59.30
2018-12-26T11:15:32.315Z,64.20
2018-12-26T11:18:14.599Z,67.30
2018-12-26T11:20:45.119Z,70.30
2018-12-26T11:23:34.722Z,76.40
2018-12-26T11:26:06.703Z,87.30
2018-12-26T11:28:56.142Z,91.50
2018-12-26T11:31:26.699Z,95.80
2018-12-26T11:34:16.268Z,93.30
2018-12-26T11:36:58.715Z,90.40
2018-12-26T11:39:41.233Z,93.60
2018-12-26T11:42:23.312Z,97.50
2018-12-26T11:45:05.020Z,99.90
2018-12-26T11:47:47.655Z,99.90
2018-12-26T11:50:34.799Z,99.90
2018-12-26T11:53:02.278Z,99.90
2018-12-26T11:55:32.930Z,99.90
2018-12-26T11:58:22.655Z,99.90
2018-12-26T12:00:54.730Z,99.80
2018-12-26T12:03:44.416Z,99.90
2018-12-26T12:06:15.304Z,97.40
2018-12-26T12:09:06.385Z,90.30
2018-12-26T12:11:51.021Z,92.60
2018-12-26T12:14:23.247Z,88.30
2018-12-26T12:16:55.325Z,76.70
2018-12-26T12:19:37.844Z,70.70
2018-12-26T12:22:08.343Z,65.60
2018-12-26T12:24:39.627Z,63.90
2018-12-26T12:27:29.319Z,63.70
2018-12-26T12:30:11.316Z,63.50
2018-12-26T12:35:36.803Z,70.50
2018-12-26T12:38:07.320Z,76.40
2018-12-26T12:40:58.498Z,84.40
2018-12-26T12:43:29.081Z,91.00
2018-12-26T12:46:01.326Z,93.20
2018-12-26T12:48:32.228Z,93.30
2018-12-26T12:51:21.815Z,94.70
2018-12-26T12:53:52.327Z,93.50
2018-12-26T12:56:24.458Z,92.30
2018-12-26T12:58:55.457Z,91.20
2018-12-26T13:01:26.087Z,90.30
2018-12-26T13:03:56.698Z,90.10
2018-12-26T13:06:49.972Z,91.10
2018-12-26T13:09:20.521Z,92.00
2018-12-26T13:12:10.137Z,92.90
2018-12-26T13:14:53.202Z,93.30
2018-12-26T13:20:08.560Z,96.30
2018-12-26T13:23:18.382Z,98.50
2018-12-26T13:26:01.073Z,99.90
2018-12-26T13:28:43.608Z,99.90
2018-12-26T13:31:25.942Z,99.90
2018-12-26T13:33:58.091Z,99.90
2018-12-26T13:36:47.831Z,99.90
2018-12-26T13:39:18.648Z,99.90
2018-12-26T13:42:08.800Z,99.90
2018-12-26T13:44:39.271Z,99.90
2018-12-26T13:47:10.154Z,99.90
2018-12-26T13:49:59.787Z,99.90
2018-12-26T13:52:49.363Z,99.90
2018-12-26T13:55:19.929Z,99.90
2018-12-26T13:58:09.775Z,99.90
2018-12-26T14:00:40.463Z,99.90
2018-12-26T14:03:22.996Z,99.90
2018-12-26T14:06:05.264Z,99.90
2018-12-26T14:09:00.238Z,99.90
2018-12-26T14:14:11.002Z,99.90
2018-12-26T14:16:41.885Z,99.90
2018-12-26T14:19:13.080Z,99.90
2018-12-26T14:22:03.961Z,99.90
2018-12-26T14:24:47.164Z,99.90
2018-12-26T14:27:30.385Z,99.90
2018-12-26T14:30:15.536Z,99.90
2018-12-26T14:32:58.427Z,99.90
2018-12-26T14:35:40.651Z,99.90
2018-12-26T14:38:11.527Z,99.90
2018-12-26T14:43:52.819Z,99.90
2018-12-26T14:46:36.543Z,99.90
2018-12-26T14:49:22.792Z,99.90
2018-12-26T14:52:11.225Z,99.90
2018-12-26T14:54:41.782Z,99.90
2018-12-26T14:57:13.887Z,99.90
2018-12-26T14:59:44.919Z,99.90
2018-12-26T15:02:35.288Z,99.90
2018-12-26T15:05:06.963Z,99.90
2018-12-26T15:07:57.453Z,99.90
2018-12-26T15:10:47.019Z,99.90
2018-12-26T15:13:17.947Z,99.90
2018-12-26T15:16:07.569Z,99.90
2018-12-26T15:18:38.218Z,99.90
2018-12-26T15:21:08.999Z,99.90
2018-12-26T15:24:00.224Z,99.90
2018-12-26T15:26:52.251Z,99.90
2018-12-26T15:29:23.318Z,99.90
2018-12-26T15:31:55.886Z,99.90
2018-12-26T15:34:38.827Z,99.90
2018-12-26T15:37:22.254Z,99.90
2018-12-26T15:40:04.945Z,99.90
2018-12-26T15:42:37.269Z,99.90
2018-12-26T15:45:07.961Z,99.90
2018-12-26T15:50:29.855Z,99.90
2018-12-26T15:53:19.544Z,99.90
2018-12-26T16:06:59.626Z,99.90
2018-12-26T16:09:30.571Z,99.90
2018-12-26T16:12:12.985Z,99.90
2018-12-26T16:17:31.072Z,99.90
2018-12-26T16:20:01.834Z,99.90
2018-12-26T16:22:51.791Z,99.90
2018-12-26T16:25:41.523Z,99.90
2018-12-26T16:28:31.267Z,99.90
2018-12-26T16:31:13.447Z,99.90
2018-12-26T16:33:43.998Z,99.90
2018-12-26T16:36:33.606Z,99.90
2018-12-26T16:39:35.777Z,99.90
2018-12-26T16:42:18.376Z,99.90
2018-12-26T16:45:00.900Z,99.90
2018-12-26T16:47:47.790Z,99.90
2018-12-26T16:50:30.476Z,99.90
2018-12-26T16:56:00.392Z,99.90
2018-12-26T16:58:42.448Z,99.90
2018-12-26T17:01:24.915Z,99.90
2018-12-26T17:04:07.441Z,99.90
2018-12-26T17:06:49.697Z,99.90
2018-12-26T17:09:31.719Z,99.90
2018-12-26T17:12:13.907Z,99.90
2018-12-26T17:14:57.117Z,99.90
2018-12-26T17:17:41.642Z,99.90
2018-12-26T17:20:24.096Z,99.90
2018-12-26T17:23:08.840Z,99.90
2018-12-26T17:25:50.751Z,99.90
2018-12-26T17:28:33.677Z,99.90
2018-12-26T17:31:20.000Z,99.90
2018-12-26T17:34:02.833Z,99.90
2018-12-26T17:36:45.711Z,99.90
2018-12-26T17:39:28.170Z,99.90
2018-12-26T17:41:58.772Z,99.90
2018-12-26T17:44:48.376Z,99.90
2018-12-26T17:47:30.723Z,99.90
2018-12-26T17:50:13.101Z,99.90
2018-12-26T17:52:55.239Z,99.90
2018-12-26T17:55:38.134Z,99.90
2018-12-26T17:58:20.439Z,99.90
2018-12-26T18:01:29.351Z,99.90
2018-12-26T18:04:11.183Z,99.90
2018-12-26T18:06:41.703Z,99.90
2018-12-26T18:09:32.912Z,99.90
2018-12-26T18:15:00.032Z,99.90
2018-12-26T18:17:42.595Z,99.90
2018-12-26T18:20:13.655Z,99.90
2018-12-26T18:23:03.815Z,99.90
2018-12-26T18:25:47.585Z,99.90
2018-12-26T18:28:18.800Z,99.90
2018-12-26T18:30:50.887Z,99.90
2018-12-26T18:33:40.536Z,99.90
2018-12-26T18:36:30.146Z,99.90
2018-12-26T18:39:12.355Z,99.90
2018-12-26T18:41:54.740Z,99.90
2018-12-26T18:44:25.424Z,99.90
2018-12-26T18:47:15.023Z,99.90
2018-12-26T18:49:57.102Z,99.90
2018-12-26T18:52:39.049Z,99.90
2018-12-26T18:55:09.808Z,99.90
2018-12-26T18:57:59.403Z,99.90
2018-12-26T19:00:31.492Z,99.90
2018-12-26T19:03:02.053Z,99.90
2018-12-26T19:05:52.103Z,99.90
2018-12-26T19:08:41.750Z,99.90
2018-12-26T19:11:24.267Z,99.90
2018-12-26T19:14:07.237Z,99.90
2018-12-26T19:16:38.307Z,99.90
2018-12-26T19:19:28.190Z,99.90
2018-12-26T19:22:18.763Z,99.90
2018-12-26T19:25:21.206Z,99.90
2018-12-26T19:27:51.962Z,99.90
2018-12-26T19:30:22.805Z,99.90
2018-12-26T19:33:12.441Z,99.90
2018-12-26T19:35:54.585Z,99.90
2018-12-26T19:38:36.879Z,99.90
2018-12-26T19:41:18.896Z,99.90
2018-12-26T19:44:01.370Z,99.90
2018-12-26T19:46:43.368Z,99.90
2018-12-26T19:49:25.184Z,99.90
2018-12-26T19:52:07.403Z,99.90
2018-12-26T19:54:48.855Z,99.90
2018-12-26T19:57:30.670Z,99.90
2018-12-26T20:00:01.177Z,99.90
2018-12-26T20:02:52.326Z,99.90
2018-12-26T20:05:37.088Z,99.90
2018-12-26T20:08:18.971Z,99.90
2018-12-26T20:11:01.252Z,99.90
2018-12-26T20:13:43.361Z,99.90
2018-12-26T20:16:25.579Z,99.90
2018-12-26T20:19:08.705Z,99.90
2018-12-26T20:21:55.159Z,99.90
2018-12-26T20:24:25.980Z,99.90
2018-12-26T20:27:15.704Z,99.90
2018-12-26T20:29:59.995Z,99.90
2018-12-26T20:32:30.810Z,99.90
2018-12-26T20:35:01.667Z,99.90
2018-12-26T20:37:51.259Z,99.90
2018-12-26T20:40:33.779Z,99.90
2018-12-26T20:43:15.819Z,99.90
2018-12-26T20:45:58.264Z,99.90
2018-12-26T20:48:40.959Z,99.90
2018-12-26T20:51:12.159Z,99.90
2018-12-26T20:54:05.732Z,99.90
2018-12-26T20:56:48.125Z,99.90
2018-12-26T20:59:18.630Z,99.90
2018-12-26T21:02:08.397Z,99.90
2018-12-26T21:04:51.179Z,99.90
2018-12-26T21:07:33.842Z,99.90
2018-12-26T21:10:15.815Z,99.90
2018-12-26T21:12:58.363Z,99.90
2018-12-26T21:15:41.031Z,99.90
2018-12-26T21:18:23.661Z,99.90
2018-12-26T21:21:06.375Z,99.90
2018-12-26T21:23:37.383Z,99.90
2018-12-26T21:26:27.239Z,99.90
2018-12-26T21:29:16.823Z,99.90
2018-12-26T21:31:58.622Z,99.90
2018-12-26T21:37:21.574Z,99.90
2018-12-26T21:40:05.346Z,99.90
2018-12-26T21:42:48.239Z,99.90
2018-12-26T21:45:30.874Z,99.90
2018-12-26T21:48:13.744Z,99.90
2018-12-26T21:50:56.013Z,99.90
2018-12-26T21:53:38.448Z,99.90
2018-12-26T21:56:20.543Z,99.90
2018-12-26T21:59:02.896Z,99.90
2018-12-26T22:01:49.316Z,99.90
2018-12-26T22:04:32.061Z,99.90
2018-12-26T22:09:59.077Z,99.90
2018-12-26T22:12:42.251Z,99.90
2018-12-26T22:15:24.827Z,99.90
2018-12-26T22:18:06.524Z,99.90
2018-12-26T22:20:49.843Z,99.90
2018-12-26T22:23:31.913Z,99.90
2018-12-26T22:26:14.857Z,99.90
2018-12-26T22:28:57.161Z,99.90
2018-12-26T22:31:39.889Z,99.90
2018-12-26T22:34:10.814Z,99.90
2018-12-26T22:37:00.418Z,99.90
2018-12-26T22:39:50.275Z,99.90
2018-12-26T22:42:32.895Z,99.90
2018-12-26T22:45:15.705Z,99.90
2018-12-26T22:50:40.670Z,99.90
2018-12-26T22:53:22.736Z,99.90
2018-12-26T22:56:04.679Z,99.90
2018-12-26T22:58:47.827Z,99.90
2018-12-26T23:04:17.940Z,99.90
2018-12-26T23:07:01.449Z,99.90
2018-12-26T23:09:43.728Z,99.90
2018-12-26T23:12:26.303Z,99.90
2018-12-26T23:15:08.510Z,99.90
2018-12-26T23:17:50.636Z,99.90
2018-12-26T23:20:32.635Z,99.90
2018-12-26T23:23:14.427Z,99.90
2018-12-26T23:25:56.646Z,99.90
2018-12-26T23:28:43.361Z,99.90
2018-12-26T23:31:25.420Z,99.90
2018-12-26T23:34:10.092Z,99.90
2018-12-26T23:36:52.263Z,99.90
2018-12-26T23:39:34.867Z,99.90
2018-12-26T23:42:16.976Z,99.90
2018-12-26T23:47:51.965Z,99.90
